sensor_id;sensor_type;location;lat;lon;timestamp;temperature;humidity
12604;DHT22;6367;52.508;13.284;2022-08-19T00:02:04;26.00;99.90
12604;DHT22;6367;52.508;13.284;2022-08-19T00:04:32;26.00;99.90
12604;DHT22;6367;52.508;13.284;2022-08-19T00:06:58;25.90;99.90
12604;DHT22;6367;52.508;13.284;2022-08-19T00:09:26;25.90;99.90
12604;DHT22;6367;52.508;13.284;2022-08-19T00:11:53;25.90;99.90
12604;DHT22;6367;52.508;13.284;2022-08-19T00:14:20;25.90;99.90
12604;DHT22;6367;52.508;13.284;2022-08-19T00:16:47;25.90;99.90
12604;DHT22;6367;52.508;13.284;2022-08-19T00:19:13;26.30;99.90
12604;DHT22;6367;52.508;13.284;2022-08-19T00:21:39;25.80;99.90
12604;DHT22;6367;52.508;13.284;2022-08-19T00:24:10;25.80;99.90
12604;DHT22;6367;52.508;13.284;2022-08-19T00:26:36;25.80;99.90
12604;DHT22;6367;52.508;13.284;2022-08-19T00:29:04;25.80;99.90
12604;DHT22;6367;52.508;13.284;2022-08-19T00:31:30;25.80;99.90
12604;DHT22;6367;52.508;13.284;2022-08-19T00:33:56;25.70;99.90
12604;DHT22;6367;52.508;13.284;2022-08-19T00:36:22;25.70;99.90
12604;DHT22;6367;52.508;13.284;2022-08-19T00:38:48;25.70;99.90
12604;DHT22;6367;52.508;13.284;2022-08-19T00:41:18;25.70;99.90
12604;DHT22;6367;52.508;13.284;2022-08-19T00:46:33;25.80;99.90
12604;DHT22;6367;52.508;13.284;2022-08-19T00:49:00;25.80;99.90
12604;DHT22;6367;52.508;13.284;2022-08-19T00:51:29;25.80;99.90
12604;DHT22;6367;52.508;13.284;2022-08-19T00:53:57;25.70;99.90
12604;DHT22;6367;52.508;13.284;2022-08-19T00:56:23;25.70;99.90
12604;DHT22;6367;52.508;13.284;2022-08-19T00:58:53;25.60;99.90
12604;DHT22;6367;52.508;13.284;2022-08-19T01:01:20;25.50;99.90
12604;DHT22;6367;52.508;13.284;2022-08-19T01:03:45;25.50;99.90
12604;DHT22;6367;52.508;13.284;2022-08-19T01:06:11;25.60;99.90
12604;DHT22;6367;52.508;13.284;2022-08-19T01:08:36;25.60;99.90
12604;DHT22;6367;52.508;13.284;2022-08-19T01:11:02;25.70;99.90
12604;DHT22;6367;52.508;13.284;2022-08-19T01:13:31;25.70;99.90
12604;DHT22;6367;52.508;13.284;2022-08-19T01:16:02;25.60;99.90
12604;DHT22;6367;52.508;13.284;2022-08-19T01:18:29;25.60;99.90
12604;DHT22;6367;52.508;13.284;2022-08-19T01:21:02;25.70;99.90
12604;DHT22;6367;52.508;13.284;2022-08-19T01:23:28;25.60;99.90
12604;DHT22;6367;52.508;13.284;2022-08-19T01:26:18;25.60;99.90
12604;DHT22;6367;52.508;13.284;2022-08-19T01:28:46;25.20;99.90
12604;DHT22;6367;52.508;13.284;2022-08-19T01:31:19;25.50;99.90
12604;DHT22;6367;52.508;13.284;2022-08-19T01:33:45;25.40;99.90
12604;DHT22;6367;52.508;13.284;2022-08-19T01:36:15;25.40;99.90
12604;DHT22;6367;52.508;13.284;2022-08-19T01:38:43;25.30;99.90
12604;DHT22;6367;52.508;13.284;2022-08-19T01:41:10;25.30;99.90
12604;DHT22;6367;52.508;13.284;2022-08-19T01:43:36;25.30;99.90
12604;DHT22;6367;52.508;13.284;2022-08-19T01:46:02;25.30;99.90
12604;DHT22;6367;52.508;13.284;2022-08-19T01:48:33;25.40;99.90
12604;DHT22;6367;52.508;13.284;2022-08-19T01:50:59;25.30;99.90
12604;DHT22;6367;52.508;13.284;2022-08-19T01:53:25;25.30;99.90
12604;DHT22;6367;52.508;13.284;2022-08-19T01:55:50;25.30;99.90
12604;DHT22;6367;52.508;13.284;2022-08-19T01:58:19;25.20;99.90
12604;DHT22;6367;52.508;13.284;2022-08-19T02:00:47;25.20;99.90
12604;DHT22;6367;52.508;13.284;2022-08-19T02:03:13;25.00;99.90
12604;DHT22;6367;52.508;13.284;2022-08-19T02:05:40;25.00;99.90
12604;DHT22;6367;52.508;13.284;2022-08-19T02:08:06;24.80;99.90
12604;DHT22;6367;52.508;13.284;2022-08-19T02:10:32;24.70;99.90
12604;DHT22;6367;52.508;13.284;2022-08-19T02:12:58;24.70;99.90
12604;DHT22;6367;52.508;13.284;2022-08-19T02:15:24;25.00;99.90
12604;DHT22;6367;52.508;13.284;2022-08-19T02:17:51;24.80;99.90
12604;DHT22;6367;52.508;13.284;2022-08-19T02:20:17;24.70;99.90
12604;DHT22;6367;52.508;13.284;2022-08-19T02:22:43;24.70;99.90
12604;DHT22;6367;52.508;13.284;2022-08-19T02:25:10;24.70;99.90
12604;DHT22;6367;52.508;13.284;2022-08-19T02:27:36;24.70;99.90
12604;DHT22;6367;52.508;13.284;2022-08-19T02:30:04;24.60;99.90
12604;DHT22;6367;52.508;13.284;2022-08-19T02:32:30;24.50;99.90
12604;DHT22;6367;52.508;13.284;2022-08-19T02:34:56;24.40;99.90
12604;DHT22;6367;52.508;13.284;2022-08-19T02:37:22;24.40;99.90
12604;DHT22;6367;52.508;13.284;2022-08-19T02:40:06;24.30;99.90
12604;DHT22;6367;52.508;13.284;2022-08-19T02:42:32;24.20;99.90
12604;DHT22;6367;52.508;13.284;2022-08-19T02:44:58;24.10;99.90
12604;DHT22;6367;52.508;13.284;2022-08-19T02:47:23;24.00;99.90
12604;DHT22;6367;52.508;13.284;2022-08-19T02:49:49;24.00;99.90
12604;DHT22;6367;52.508;13.284;2022-08-19T02:52:15;24.00;99.90
12604;DHT22;6367;52.508;13.284;2022-08-19T02:54:41;23.90;99.90
12604;DHT22;6367;52.508;13.284;2022-08-19T02:57:07;23.80;99.90
12604;DHT22;6367;52.508;13.284;2022-08-19T02:59:33;23.80;99.90
12604;DHT22;6367;52.508;13.284;2022-08-19T03:01:59;23.80;99.90
12604;DHT22;6367;52.508;13.284;2022-08-19T03:04:25;23.80;99.90
12604;DHT22;6367;52.508;13.284;2022-08-19T03:06:51;23.70;99.90
12604;DHT22;6367;52.508;13.284;2022-08-19T03:09:19;23.70;99.90
12604;DHT22;6367;52.508;13.284;2022-08-19T03:11:45;23.70;99.90
12604;DHT22;6367;52.508;13.284;2022-08-19T03:14:11;23.70;99.90
12604;DHT22;6367;52.508;13.284;2022-08-19T03:16:44;23.80;99.90
12604;DHT22;6367;52.508;13.284;2022-08-19T03:19:10;23.70;99.90
12604;DHT22;6367;52.508;13.284;2022-08-19T03:21:37;23.70;99.90
12604;DHT22;6367;52.508;13.284;2022-08-19T03:24:06;23.70;99.90
12604;DHT22;6367;52.508;13.284;2022-08-19T03:26:33;23.70;99.90
12604;DHT22;6367;52.508;13.284;2022-08-19T03:29:03;23.70;99.90
12604;DHT22;6367;52.508;13.284;2022-08-19T03:31:29;23.80;99.90
12604;DHT22;6367;52.508;13.284;2022-08-19T03:33:55;23.80;99.90
12604;DHT22;6367;52.508;13.284;2022-08-19T03:36:23;23.80;99.90
12604;DHT22;6367;52.508;13.284;2022-08-19T03:38:51;23.80;99.90
12604;DHT22;6367;52.508;13.284;2022-08-19T03:41:26;23.80;99.90
12604;DHT22;6367;52.508;13.284;2022-08-19T03:43:53;23.70;99.90
12604;DHT22;6367;52.508;13.284;2022-08-19T03:46:21;23.80;99.90
12604;DHT22;6367;52.508;13.284;2022-08-19T03:48:49;23.80;99.90
12604;DHT22;6367;52.508;13.284;2022-08-19T03:51:27;23.80;99.90
12604;DHT22;6367;52.508;13.284;2022-08-19T03:53:54;23.80;99.90
12604;DHT22;6367;52.508;13.284;2022-08-19T03:56:21;24.40;99.90
12604;DHT22;6367;52.508;13.284;2022-08-19T03:58:47;23.80;99.90
12604;DHT22;6367;52.508;13.284;2022-08-19T04:01:16;23.80;99.90
12604;DHT22;6367;52.508;13.284;2022-08-19T04:03:43;23.90;99.90
12604;DHT22;6367;52.508;13.284;2022-08-19T04:06:11;23.80;99.90
12604;DHT22;6367;52.508;13.284;2022-08-19T04:08:38;23.90;99.90
12604;DHT22;6367;52.508;13.284;2022-08-19T04:11:07;23.90;99.90
12604;DHT22;6367;52.508;13.284;2022-08-19T04:13:33;23.90;99.90
12604;DHT22;6367;52.508;13.284;2022-08-19T04:15:59;23.90;99.90
12604;DHT22;6367;52.508;13.284;2022-08-19T04:18:25;23.90;99.90
12604;DHT22;6367;52.508;13.284;2022-08-19T04:20:52;23.90;99.90
12604;DHT22;6367;52.508;13.284;2022-08-19T04:23:17;23.90;99.90
12604;DHT22;6367;52.508;13.284;2022-08-19T04:25:44;23.90;99.90
12604;DHT22;6367;52.508;13.284;2022-08-19T04:28:11;23.90;99.90
12604;DHT22;6367;52.508;13.284;2022-08-19T04:30:46;24.00;99.90
12604;DHT22;6367;52.508;13.284;2022-08-19T04:33:19;24.00;99.90
12604;DHT22;6367;52.508;13.284;2022-08-19T04:35:47;23.90;99.90
12604;DHT22;6367;52.508;13.284;2022-08-19T04:38:15;24.10;99.90
12604;DHT22;6367;52.508;13.284;2022-08-19T04:40:46;24.50;99.90
12604;DHT22;6367;52.508;13.284;2022-08-19T04:43:32;24.10;99.90
12604;DHT22;6367;52.508;13.284;2022-08-19T04:45:58;24.00;99.90
12604;DHT22;6367;52.508;13.284;2022-08-19T04:48:24;24.10;99.90
12604;DHT22;6367;52.508;13.284;2022-08-19T04:50:54;24.10;99.90
12604;DHT22;6367;52.508;13.284;2022-08-19T04:53:31;24.20;99.90
12604;DHT22;6367;52.508;13.284;2022-08-19T04:55:59;24.10;99.90
12604;DHT22;6367;52.508;13.284;2022-08-19T04:58:27;24.10;99.90
12604;DHT22;6367;52.508;13.284;2022-08-19T05:00:54;24.10;99.90
12604;DHT22;6367;52.508;13.284;2022-08-19T05:03:20;24.20;99.90
12604;DHT22;6367;52.508;13.284;2022-08-19T05:05:47;24.10;99.90
12604;DHT22;6367;52.508;13.284;2022-08-19T05:08:16;24.20;99.90
12604;DHT22;6367;52.508;13.284;2022-08-19T05:10:46;24.20;99.90
12604;DHT22;6367;52.508;13.284;2022-08-19T05:13:13;24.20;99.90
12604;DHT22;6367;52.508;13.284;2022-08-19T05:15:40;24.30;99.90
12604;DHT22;6367;52.508;13.284;2022-08-19T05:18:06;24.30;99.90
12604;DHT22;6367;52.508;13.284;2022-08-19T05:20:50;24.30;99.90
12604;DHT22;6367;52.508;13.284;2022-08-19T05:23:34;24.40;99.90
12604;DHT22;6367;52.508;13.284;2022-08-19T05:25:59;24.10;99.90
12604;DHT22;6367;52.508;13.284;2022-08-19T05:28:26;24.40;99.90
12604;DHT22;6367;52.508;13.284;2022-08-19T05:30:52;24.40;99.90
12604;DHT22;6367;52.508;13.284;2022-08-19T05:33:21;24.40;99.90
12604;DHT22;6367;52.508;13.284;2022-08-19T05:35:48;24.40;99.90
12604;DHT22;6367;52.508;13.284;2022-08-19T05:38:16;24.60;99.90
12604;DHT22;6367;52.508;13.284;2022-08-19T05:40:42;24.50;99.90
12604;DHT22;6367;52.508;13.284;2022-08-19T05:43:15;24.50;99.90
12604;DHT22;6367;52.508;13.284;2022-08-19T05:45:43;24.60;99.90
12604;DHT22;6367;52.508;13.284;2022-08-19T05:48:11;24.60;99.90
12604;DHT22;6367;52.508;13.284;2022-08-19T05:50:38;24.70;99.90
12604;DHT22;6367;52.508;13.284;2022-08-19T05:53:04;24.80;99.90
12604;DHT22;6367;52.508;13.284;2022-08-19T05:55:31;24.90;99.90
12604;DHT22;6367;52.508;13.284;2022-08-19T05:57:57;24.90;99.90
12604;DHT22;6367;52.508;13.284;2022-08-19T06:00:22;24.90;99.90
12604;DHT22;6367;52.508;13.284;2022-08-19T06:02:48;25.00;99.90
12604;DHT22;6367;52.508;13.284;2022-08-19T06:05:14;25.00;99.90
12604;DHT22;6367;52.508;13.284;2022-08-19T06:07:40;25.00;99.90
12604;DHT22;6367;52.508;13.284;2022-08-19T06:10:08;25.00;99.90
12604;DHT22;6367;52.508;13.284;2022-08-19T06:12:35;25.00;99.90
12604;DHT22;6367;52.508;13.284;2022-08-19T06:15:07;25.10;99.90
12604;DHT22;6367;52.508;13.284;2022-08-19T06:17:33;25.10;99.90
12604;DHT22;6367;52.508;13.284;2022-08-19T06:20:00;25.20;99.90
12604;DHT22;6367;52.508;13.284;2022-08-19T06:22:27;25.20;99.90
12604;DHT22;6367;52.508;13.284;2022-08-19T06:24:53;25.30;99.90
12604;DHT22;6367;52.508;13.284;2022-08-19T06:27:19;25.40;99.90
12604;DHT22;6367;52.508;13.284;2022-08-19T06:29:45;25.40;99.90
12604;DHT22;6367;52.508;13.284;2022-08-19T06:32:13;25.50;99.90
12604;DHT22;6367;52.508;13.284;2022-08-19T06:34:40;25.50;99.90
12604;DHT22;6367;52.508;13.284;2022-08-19T06:37:06;25.50;99.90
12604;DHT22;6367;52.508;13.284;2022-08-19T06:39:38;25.50;99.90
12604;DHT22;6367;52.508;13.284;2022-08-19T06:42:05;25.50;99.90
12604;DHT22;6367;52.508;13.284;2022-08-19T06:44:34;25.60;99.90
12604;DHT22;6367;52.508;13.284;2022-08-19T06:47:03;25.60;99.90
12604;DHT22;6367;52.508;13.284;2022-08-19T06:49:30;25.60;99.90
12604;DHT22;6367;52.508;13.284;2022-08-19T06:51:59;25.60;99.90
12604;DHT22;6367;52.508;13.284;2022-08-19T06:54:24;25.60;99.90
12604;DHT22;6367;52.508;13.284;2022-08-19T06:56:51;25.50;99.90
12604;DHT22;6367;52.508;13.284;2022-08-19T06:59:23;25.40;99.90
12604;DHT22;6367;52.508;13.284;2022-08-19T07:01:53;25.40;99.90
12604;DHT22;6367;52.508;13.284;2022-08-19T07:04:22;25.40;99.90
12604;DHT22;6367;52.508;13.284;2022-08-19T07:06:49;25.50;99.90
12604;DHT22;6367;52.508;13.284;2022-08-19T07:09:16;25.30;99.90
12604;DHT22;6367;52.508;13.284;2022-08-19T07:11:47;25.20;99.90
12604;DHT22;6367;52.508;13.284;2022-08-19T07:14:15;25.30;99.90
12604;DHT22;6367;52.508;13.284;2022-08-19T07:16:44;25.30;99.90
12604;DHT22;6367;52.508;13.284;2022-08-19T07:19:11;25.50;99.90
12604;DHT22;6367;52.508;13.284;2022-08-19T07:21:37;25.50;99.90
12604;DHT22;6367;52.508;13.284;2022-08-19T07:24:03;25.50;99.90
12604;DHT22;6367;52.508;13.284;2022-08-19T07:26:33;25.50;99.90
12604;DHT22;6367;52.508;13.284;2022-08-19T07:29:04;25.60;99.90
12604;DHT22;6367;52.508;13.284;2022-08-19T07:31:30;25.70;99.90
12604;DHT22;6367;52.508;13.284;2022-08-19T07:33:56;25.60;99.90
12604;DHT22;6367;52.508;13.284;2022-08-19T07:36:27;25.60;99.90
12604;DHT22;6367;52.508;13.284;2022-08-19T07:38:58;25.60;99.90
12604;DHT22;6367;52.508;13.284;2022-08-19T07:41:27;25.70;99.90
12604;DHT22;6367;52.508;13.284;2022-08-19T07:43:54;25.70;99.90
12604;DHT22;6367;52.508;13.284;2022-08-19T07:46:20;25.70;99.90
12604;DHT22;6367;52.508;13.284;2022-08-19T07:48:48;25.70;99.90
12604;DHT22;6367;52.508;13.284;2022-08-19T07:51:18;25.80;99.90
12604;DHT22;6367;52.508;13.284;2022-08-19T07:53:44;25.90;99.90
12604;DHT22;6367;52.508;13.284;2022-08-19T07:56:12;25.90;99.90
12604;DHT22;6367;52.508;13.284;2022-08-19T07:58:40;25.80;99.90
12604;DHT22;6367;52.508;13.284;2022-08-19T08:01:07;26.30;99.90
12604;DHT22;6367;52.508;13.284;2022-08-19T08:03:36;25.80;99.90
12604;DHT22;6367;52.508;13.284;2022-08-19T08:06:21;25.70;99.90
12604;DHT22;6367;52.508;13.284;2022-08-19T08:09:08;25.80;99.90
12604;DHT22;6367;52.508;13.284;2022-08-19T08:11:45;25.80;99.90
12604;DHT22;6367;52.508;13.284;2022-08-19T08:14:18;25.80;99.90
12604;DHT22;6367;52.508;13.284;2022-08-19T08:16:45;25.90;99.90
12604;DHT22;6367;52.508;13.284;2022-08-19T08:19:12;26.00;99.90
12604;DHT22;6367;52.508;13.284;2022-08-19T08:21:40;26.00;99.90
12604;DHT22;6367;52.508;13.284;2022-08-19T08:24:05;26.00;99.90
12604;DHT22;6367;52.508;13.284;2022-08-19T08:26:31;26.00;99.90
12604;DHT22;6367;52.508;13.284;2022-08-19T08:28:57;26.20;99.90
12604;DHT22;6367;52.508;13.284;2022-08-19T08:31:22;26.10;99.90
12604;DHT22;6367;52.508;13.284;2022-08-19T08:33:49;26.00;99.90
12604;DHT22;6367;52.508;13.284;2022-08-19T08:36:14;26.10;99.90
12604;DHT22;6367;52.508;13.284;2022-08-19T08:38:41;26.10;99.90
12604;DHT22;6367;52.508;13.284;2022-08-19T08:41:41;26.20;99.90
12604;DHT22;6367;52.508;13.284;2022-08-19T08:44:04;26.70;99.90
12604;DHT22;6367;52.508;13.284;2022-08-19T08:46:44;26.20;99.90
12604;DHT22;6367;52.508;13.284;2022-08-19T08:51:46;26.30;99.90
12604;DHT22;6367;52.508;13.284;2022-08-19T08:54:15;26.60;99.90
12604;DHT22;6367;52.508;13.284;2022-08-19T08:56:44;26.30;99.90
12604;DHT22;6367;52.508;13.284;2022-08-19T08:59:37;26.30;99.90
12604;DHT22;6367;52.508;13.284;2022-08-19T09:02:04;26.30;99.90
12604;DHT22;6367;52.508;13.284;2022-08-19T09:04:30;26.20;99.90
12604;DHT22;6367;52.508;13.284;2022-08-19T09:09:45;26.10;99.90
12604;DHT22;6367;52.508;13.284;2022-08-19T09:12:48;26.00;99.90
12604;DHT22;6367;52.508;13.284;2022-08-19T09:15:19;26.10;99.90
12604;DHT22;6367;52.508;13.284;2022-08-19T09:17:48;26.20;99.90
12604;DHT22;6367;52.508;13.284;2022-08-19T09:20:22;26.20;99.90
12604;DHT22;6367;52.508;13.284;2022-08-19T09:22:49;26.20;99.90
12604;DHT22;6367;52.508;13.284;2022-08-19T09:25:20;26.20;99.90
12604;DHT22;6367;52.508;13.284;2022-08-19T09:27:48;26.00;99.90
12604;DHT22;6367;52.508;13.284;2022-08-19T09:30:20;26.10;99.90
12604;DHT22;6367;52.508;13.284;2022-08-19T09:32:56;26.10;99.90
12604;DHT22;6367;52.508;13.284;2022-08-19T09:35:24;26.30;99.90
12604;DHT22;6367;52.508;13.284;2022-08-19T09:37:51;26.50;99.90
12604;DHT22;6367;52.508;13.284;2022-08-19T09:40:17;26.50;99.90
12604;DHT22;6367;52.508;13.284;2022-08-19T09:42:47;26.60;99.90
12604;DHT22;6367;52.508;13.284;2022-08-19T09:45:14;26.60;99.90
12604;DHT22;6367;52.508;13.284;2022-08-19T09:47:40;26.60;99.90
12604;DHT22;6367;52.508;13.284;2022-08-19T09:50:08;26.60;99.90
12604;DHT22;6367;52.508;13.284;2022-08-19T09:52:34;26.60;99.90
12604;DHT22;6367;52.508;13.284;2022-08-19T09:55:05;26.60;99.90
12604;DHT22;6367;52.508;13.284;2022-08-19T09:57:31;26.70;99.90
12604;DHT22;6367;52.508;13.284;2022-08-19T09:59:57;26.80;99.90
12604;DHT22;6367;52.508;13.284;2022-08-19T10:02:22;26.80;99.90
12604;DHT22;6367;52.508;13.284;2022-08-19T10:04:48;26.80;99.90
12604;DHT22;6367;52.508;13.284;2022-08-19T10:07:32;26.90;99.90
12604;DHT22;6367;52.508;13.284;2022-08-19T10:09:58;26.80;99.90
12604;DHT22;6367;52.508;13.284;2022-08-19T10:12:24;26.80;99.90
12604;DHT22;6367;52.508;13.284;2022-08-19T10:14:50;26.70;99.90
12604;DHT22;6367;52.508;13.284;2022-08-19T10:17:16;26.50;99.90
12604;DHT22;6367;52.508;13.284;2022-08-19T10:19:43;26.70;99.90
12604;DHT22;6367;52.508;13.284;2022-08-19T10:22:08;26.70;99.90
12604;DHT22;6367;52.508;13.284;2022-08-19T10:24:36;26.70;99.90
12604;DHT22;6367;52.508;13.284;2022-08-19T10:27:02;26.70;99.90
12604;DHT22;6367;52.508;13.284;2022-08-19T10:29:30;26.80;99.90
12604;DHT22;6367;52.508;13.284;2022-08-19T10:31:57;26.80;99.90
12604;DHT22;6367;52.508;13.284;2022-08-19T10:34:24;26.80;99.90
12604;DHT22;6367;52.508;13.284;2022-08-19T10:36:50;26.80;99.90
12604;DHT22;6367;52.508;13.284;2022-08-19T10:39:16;26.90;99.90
12604;DHT22;6367;52.508;13.284;2022-08-19T10:41:42;27.10;99.90
12604;DHT22;6367;52.508;13.284;2022-08-19T10:44:11;27.20;99.90
12604;DHT22;6367;52.508;13.284;2022-08-19T10:46:40;27.30;99.90
12604;DHT22;6367;52.508;13.284;2022-08-19T10:49:08;27.30;99.90
12604;DHT22;6367;52.508;13.284;2022-08-19T10:51:35;27.30;99.90
12604;DHT22;6367;52.508;13.284;2022-08-19T10:54:20;27.30;99.90
12604;DHT22;6367;52.508;13.284;2022-08-19T10:56:45;27.40;99.90
12604;DHT22;6367;52.508;13.284;2022-08-19T10:59:26;27.30;99.90
12604;DHT22;6367;52.508;13.284;2022-08-19T11:01:59;27.30;99.90
12604;DHT22;6367;52.508;13.284;2022-08-19T11:04:26;27.30;99.90
12604;DHT22;6367;52.508;13.284;2022-08-19T11:06:51;27.30;99.90
12604;DHT22;6367;52.508;13.284;2022-08-19T11:09:19;27.30;99.90
12604;DHT22;6367;52.508;13.284;2022-08-19T11:11:45;27.20;99.90
12604;DHT22;6367;52.508;13.284;2022-08-19T11:14:15;27.10;99.90
12604;DHT22;6367;52.508;13.284;2022-08-19T11:16:42;27.50;99.90
12604;DHT22;6367;52.508;13.284;2022-08-19T11:19:10;27.00;99.90
12604;DHT22;6367;52.508;13.284;2022-08-19T11:21:39;26.90;99.90
12604;DHT22;6367;52.508;13.284;2022-08-19T11:24:14;27.00;99.90
12604;DHT22;6367;52.508;13.284;2022-08-19T11:26:41;26.90;99.90
12604;DHT22;6367;52.508;13.284;2022-08-19T11:29:08;27.00;99.90
12604;DHT22;6367;52.508;13.284;2022-08-19T11:31:43;27.00;99.90
12604;DHT22;6367;52.508;13.284;2022-08-19T11:34:12;26.90;99.90
12604;DHT22;6367;52.508;13.284;2022-08-19T11:36:40;27.00;99.90
12604;DHT22;6367;52.508;13.284;2022-08-19T11:39:08;26.90;99.90
12604;DHT22;6367;52.508;13.284;2022-08-19T11:41:34;26.90;99.90
12604;DHT22;6367;52.508;13.284;2022-08-19T11:44:00;26.90;99.90
12604;DHT22;6367;52.508;13.284;2022-08-19T11:46:26;26.90;99.90
12604;DHT22;6367;52.508;13.284;2022-08-19T11:48:55;26.80;99.90
12604;DHT22;6367;52.508;13.284;2022-08-19T11:51:23;26.80;99.90
12604;DHT22;6367;52.508;13.284;2022-08-19T11:53:50;26.70;99.90
12604;DHT22;6367;52.508;13.284;2022-08-19T11:56:17;27.00;99.90
12604;DHT22;6367;52.508;13.284;2022-08-19T11:58:43;26.70;99.90
12604;DHT22;6367;52.508;13.284;2022-08-19T12:01:10;26.70;99.90
12604;DHT22;6367;52.508;13.284;2022-08-19T12:03:37;26.70;99.90
12604;DHT22;6367;52.508;13.284;2022-08-19T12:06:08;26.70;99.90
12604;DHT22;6367;52.508;13.284;2022-08-19T12:08:35;26.70;99.90
12604;DHT22;6367;52.508;13.284;2022-08-19T12:11:00;26.80;99.90
12604;DHT22;6367;52.508;13.284;2022-08-19T12:13:28;26.80;99.90
12604;DHT22;6367;52.508;13.284;2022-08-19T12:15:54;26.80;99.90
12604;DHT22;6367;52.508;13.284;2022-08-19T12:18:20;26.90;99.90
12604;DHT22;6367;52.508;13.284;2022-08-19T12:20:45;26.80;99.90
12604;DHT22;6367;52.508;13.284;2022-08-19T12:23:13;26.90;99.90
12604;DHT22;6367;52.508;13.284;2022-08-19T12:25:45;26.80;99.90
12604;DHT22;6367;52.508;13.284;2022-08-19T12:28:19;26.70;99.90
12604;DHT22;6367;52.508;13.284;2022-08-19T12:30:45;26.70;99.90
12604;DHT22;6367;52.508;13.284;2022-08-19T12:33:11;26.70;99.90
12604;DHT22;6367;52.508;13.284;2022-08-19T12:35:43;27.30;99.90
12604;DHT22;6367;52.508;13.284;2022-08-19T12:38:10;26.90;99.90
12604;DHT22;6367;52.508;13.284;2022-08-19T12:40:36;27.00;99.90
12604;DHT22;6367;52.508;13.284;2022-08-19T12:43:02;27.00;99.90
12604;DHT22;6367;52.508;13.284;2022-08-19T12:45:27;27.10;99.90
12604;DHT22;6367;52.508;13.284;2022-08-19T12:47:54;26.90;99.90
12604;DHT22;6367;52.508;13.284;2022-08-19T12:50:19;27.00;99.90
12604;DHT22;6367;52.508;13.284;2022-08-19T12:52:47;26.80;99.90
12604;DHT22;6367;52.508;13.284;2022-08-19T12:55:14;26.90;99.90
12604;DHT22;6367;52.508;13.284;2022-08-19T12:57:39;26.80;99.90
12604;DHT22;6367;52.508;13.284;2022-08-19T13:00:07;26.90;99.90
12604;DHT22;6367;52.508;13.284;2022-08-19T13:02:38;26.90;99.90
12604;DHT22;6367;52.508;13.284;2022-08-19T13:05:08;27.00;99.90
12604;DHT22;6367;52.508;13.284;2022-08-19T13:07:34;27.10;99.90
12604;DHT22;6367;52.508;13.284;2022-08-19T13:10:00;27.20;99.90
12604;DHT22;6367;52.508;13.284;2022-08-19T13:12:26;27.00;99.90
12604;DHT22;6367;52.508;13.284;2022-08-19T13:14:55;27.10;99.90
12604;DHT22;6367;52.508;13.284;2022-08-19T13:17:21;27.20;99.90
12604;DHT22;6367;52.508;13.284;2022-08-19T13:19:47;27.50;99.90
12604;DHT22;6367;52.508;13.284;2022-08-19T13:22:13;27.30;99.90
12604;DHT22;6367;52.508;13.284;2022-08-19T13:24:38;27.60;99.90
12604;DHT22;6367;52.508;13.284;2022-08-19T13:27:04;27.30;99.90
12604;DHT22;6367;52.508;13.284;2022-08-19T13:29:30;27.40;99.90
12604;DHT22;6367;52.508;13.284;2022-08-19T13:32:14;27.50;99.90
12604;DHT22;6367;52.508;13.284;2022-08-19T13:34:58;27.40;99.90
12604;DHT22;6367;52.508;13.284;2022-08-19T13:37:24;27.50;99.90
12604;DHT22;6367;52.508;13.284;2022-08-19T13:40:21;27.60;99.90
12604;DHT22;6367;52.508;13.284;2022-08-19T13:42:50;27.60;99.90
12604;DHT22;6367;52.508;13.284;2022-08-19T13:45:18;27.70;99.90
12604;DHT22;6367;52.508;13.284;2022-08-19T13:47:49;27.80;99.90
12604;DHT22;6367;52.508;13.284;2022-08-19T13:50:18;27.90;99.90
12604;DHT22;6367;52.508;13.284;2022-08-19T13:52:45;27.90;99.90
12604;DHT22;6367;52.508;13.284;2022-08-19T13:55:13;28.00;99.90
12604;DHT22;6367;52.508;13.284;2022-08-19T13:57:38;28.10;99.90
12604;DHT22;6367;52.508;13.284;2022-08-19T14:00:07;28.10;99.90
12604;DHT22;6367;52.508;13.284;2022-08-19T14:02:36;28.10;99.90
12604;DHT22;6367;52.508;13.284;2022-08-19T14:05:04;28.10;99.90
12604;DHT22;6367;52.508;13.284;2022-08-19T14:07:30;28.10;99.90
12604;DHT22;6367;52.508;13.284;2022-08-19T14:09:56;28.20;99.90
12604;DHT22;6367;52.508;13.284;2022-08-19T14:12:22;28.10;99.90
12604;DHT22;6367;52.508;13.284;2022-08-19T14:14:48;28.10;99.90
12604;DHT22;6367;52.508;13.284;2022-08-19T14:17:14;28.10;99.90
12604;DHT22;6367;52.508;13.284;2022-08-19T14:19:40;28.00;99.90
12604;DHT22;6367;52.508;13.284;2022-08-19T14:22:06;28.00;99.90
12604;DHT22;6367;52.508;13.284;2022-08-19T14:24:31;27.90;99.90
12604;DHT22;6367;52.508;13.284;2022-08-19T14:27:00;27.90;99.90
12604;DHT22;6367;52.508;13.284;2022-08-19T14:29:26;27.80;99.90
12604;DHT22;6367;52.508;13.284;2022-08-19T14:31:54;27.80;99.90
12604;DHT22;6367;52.508;13.284;2022-08-19T14:34:21;27.70;99.90
12604;DHT22;6367;52.508;13.284;2022-08-19T14:36:47;27.70;99.90
12604;DHT22;6367;52.508;13.284;2022-08-19T14:39:13;27.70;99.90
12604;DHT22;6367;52.508;13.284;2022-08-19T14:41:40;27.60;99.90
12604;DHT22;6367;52.508;13.284;2022-08-19T14:44:07;27.50;99.90
12604;DHT22;6367;52.508;13.284;2022-08-19T14:46:35;27.50;99.90
12604;DHT22;6367;52.508;13.284;2022-08-19T14:49:01;27.40;99.90
12604;DHT22;6367;52.508;13.284;2022-08-19T14:51:27;27.40;99.90
12604;DHT22;6367;52.508;13.284;2022-08-19T14:53:53;27.40;99.90
12604;DHT22;6367;52.508;13.284;2022-08-19T14:56:21;27.40;99.90
12604;DHT22;6367;52.508;13.284;2022-08-19T14:58:47;27.40;99.90
12604;DHT22;6367;52.508;13.284;2022-08-19T15:01:16;27.30;99.90
12604;DHT22;6367;52.508;13.284;2022-08-19T15:03:42;27.60;99.90
12604;DHT22;6367;52.508;13.284;2022-08-19T15:06:08;27.40;99.90
12604;DHT22;6367;52.508;13.284;2022-08-19T15:08:37;27.40;99.90
12604;DHT22;6367;52.508;13.284;2022-08-19T15:11:08;27.40;99.90
12604;DHT22;6367;52.508;13.284;2022-08-19T15:13:35;27.30;99.90
12604;DHT22;6367;52.508;13.284;2022-08-19T15:16:01;27.40;99.90
12604;DHT22;6367;52.508;13.284;2022-08-19T15:18:27;27.40;99.90
12604;DHT22;6367;52.508;13.284;2022-08-19T15:20:53;27.30;99.90
12604;DHT22;6367;52.508;13.284;2022-08-19T15:23:20;27.30;99.90
12604;DHT22;6367;52.508;13.284;2022-08-19T15:25:46;27.30;99.90
12604;DHT22;6367;52.508;13.284;2022-08-19T15:28:12;27.20;99.90
12604;DHT22;6367;52.508;13.284;2022-08-19T15:30:39;27.20;99.90
12604;DHT22;6367;52.508;13.284;2022-08-19T15:33:05;27.20;99.90
12604;DHT22;6367;52.508;13.284;2022-08-19T15:35:31;27.20;99.90
12604;DHT22;6367;52.508;13.284;2022-08-19T15:37:57;27.10;99.90
12604;DHT22;6367;52.508;13.284;2022-08-19T15:40:25;27.20;99.90
12604;DHT22;6367;52.508;13.284;2022-08-19T15:42:51;27.10;99.90
12604;DHT22;6367;52.508;13.284;2022-08-19T15:45:18;27.10;99.90